createdAt,value
2022-11-26T00:01:41.800Z,102285.75
2022-11-26T00:04:09.298Z,102282.53
2022-11-26T00:06:41.495Z,102279.75
2022-11-26T00:09:14.100Z,102284.09
2022-11-26T00:11:41.091Z,102282.13
2022-11-26T00:14:14.133Z,102283.53
2022-11-26T00:16:41.414Z,102284.09
2022-11-26T00:19:08.884Z,102286.72
2022-11-26T00:21:39.066Z,102292.75
2022-11-26T00:24:07.933Z,102292.59
2022-11-26T00:26:35.484Z,102300.00
2022-11-26T00:29:02.720Z,102301.13
2022-11-26T00:31:29.680Z,102300.75
2022-11-26T00:33:57.123Z,102300.22
2022-11-26T00:36:27.877Z,102299.53
2022-11-26T00:39:07.475Z,102301.88
2022-11-26T00:41:36.503Z,102303.78
2022-11-26T00:44:03.221Z,102304.56
2022-11-26T00:46:29.970Z,102293.53
2022-11-26T00:48:57.265Z,102287.41
2022-11-26T00:51:27.109Z,102282.75
2022-11-26T00:53:55.839Z,102277.28
2022-11-26T00:56:23.166Z,102284.97
2022-11-26T00:58:51.113Z,102293.31
2022-11-26T01:01:21.758Z,102304.66
2022-11-26T01:03:48.918Z,102309.78
2022-11-26T01:06:16.649Z,102319.94
2022-11-26T01:08:44.147Z,102314.75
2022-11-26T01:11:14.904Z,102318.28
2022-11-26T01:13:43.552Z,102318.75
2022-11-26T01:16:23.779Z,102317.47
2022-11-26T01:18:52.847Z,102331.47
2022-11-26T01:21:19.926Z,102324.53
2022-11-26T01:23:46.811Z,102327.28
2022-11-26T01:26:19.152Z,102322.81
2022-11-26T01:28:46.168Z,102322.75
2022-11-26T01:31:21.590Z,102328.66
2022-11-26T01:33:48.651Z,102336.06
2022-11-26T01:36:36.041Z,102338.53
2022-11-26T01:39:06.670Z,102346.38
2022-11-26T01:41:45.675Z,102339.78
2022-11-26T01:44:21.332Z,102335.66
2022-11-26T01:46:49.155Z,102331.56
2022-11-26T01:49:17.574Z,102334.63
2022-11-26T01:51:45.136Z,102332.94
2022-11-26T01:54:11.923Z,102327.41
2022-11-26T01:56:46.415Z,102331.94
2022-11-26T01:59:22.726Z,102327.09
2022-11-26T02:01:51.295Z,102321.19
2022-11-26T02:04:21.839Z,102334.38
2022-11-26T02:06:49.911Z,102346.03
2022-11-26T02:09:18.226Z,102348.06
2022-11-26T02:11:46.286Z,102349.97
2022-11-26T02:14:17.892Z,102343.13
2022-11-26T02:17:29.203Z,102351.94
2022-11-26T02:20:30.122Z,102349.53
2022-11-26T02:23:15.217Z,102357.53
2022-11-26T02:26:01.172Z,102357.44
2022-11-26T02:28:46.435Z,102368.47
2022-11-26T02:31:18.578Z,102374.78
2022-11-26T02:33:50.678Z,102364.41
2022-11-26T02:36:30.676Z,102377.94
2022-11-26T02:38:57.714Z,102376.25
2022-11-26T02:41:24.692Z,102372.16
2022-11-26T02:43:51.652Z,102378.63
2022-11-26T02:46:20.808Z,102374.16
2022-11-26T02:48:49.704Z,102370.75
2022-11-26T02:51:23.572Z,102375.19
2022-11-26T02:53:51.300Z,102384.50
2022-11-26T02:56:26.469Z,102371.97
2022-11-26T02:58:54.582Z,102371.81
2022-11-26T03:01:34.486Z,102370.41
2022-11-26T03:04:05.874Z,102377.38
2022-11-26T03:06:33.879Z,102374.00
2022-11-26T03:09:01.022Z,102376.38
2022-11-26T03:11:28.129Z,102369.09
2022-11-26T03:13:55.046Z,102376.13
2022-11-26T03:16:21.992Z,102368.97
2022-11-26T03:18:48.801Z,102377.88
2022-11-26T03:21:15.527Z,102375.16
2022-11-26T03:23:43.119Z,102373.88
2022-11-26T03:26:09.881Z,102377.25
2022-11-26T03:28:36.681Z,102382.25
2022-11-26T03:31:03.986Z,102384.66
2022-11-26T03:33:31.080Z,102382.28
2022-11-26T03:35:57.797Z,102373.13
2022-11-26T03:38:25.332Z,102383.41
2022-11-26T03:40:59.524Z,102381.75
2022-11-26T03:43:26.442Z,102390.06
2022-11-26T03:45:53.226Z,102389.94
2022-11-26T03:48:20.141Z,102395.03
2022-11-26T03:50:47.245Z,102384.88
2022-11-26T03:53:14.023Z,102386.09
2022-11-26T03:55:40.676Z,102384.16
2022-11-26T03:58:07.432Z,102388.34
2022-11-26T04:00:34.447Z,102407.25
2022-11-26T04:03:01.211Z,102411.41
2022-11-26T04:05:27.931Z,102408.53
2022-11-26T04:07:54.887Z,102405.00
2022-11-26T04:10:21.804Z,102413.53
2022-11-26T04:12:48.579Z,102402.63
2022-11-26T04:15:16.001Z,102403.22
2022-11-26T04:17:44.210Z,102413.91
2022-11-26T04:20:11.302Z,102419.56
2022-11-26T04:22:38.083Z,102413.50
2022-11-26T04:25:05.365Z,102424.97
2022-11-26T04:27:33.079Z,102406.41
2022-11-26T04:30:00.092Z,102407.13
2022-11-26T04:32:26.978Z,102406.81
2022-11-26T04:34:53.808Z,102399.44
2022-11-26T04:37:20.507Z,102409.53
2022-11-26T04:39:47.412Z,102408.44
2022-11-26T04:42:14.168Z,102404.44
2022-11-26T04:44:40.916Z,102418.16
2022-11-26T04:47:07.744Z,102414.28
2022-11-26T04:49:34.440Z,102411.88
2022-11-26T04:52:01.200Z,102414.44
2022-11-26T04:54:28.016Z,102413.44
2022-11-26T04:56:56.010Z,102403.09
2022-11-26T04:59:23.494Z,102409.94
2022-11-26T05:01:50.322Z,102415.66
2022-11-26T05:04:17.105Z,102412.06
2022-11-26T05:06:44.241Z,102415.88
2022-11-26T05:09:10.986Z,102410.69
2022-11-26T05:11:37.719Z,102413.94
2022-11-26T05:14:04.573Z,102420.31
2022-11-26T05:16:31.347Z,102422.75
2022-11-26T05:18:58.277Z,102428.72
2022-11-26T05:21:25.122Z,102433.53
2022-11-26T05:23:52.482Z,102431.47
2022-11-26T05:26:19.287Z,102433.53
2022-11-26T05:28:45.985Z,102451.00
2022-11-26T05:31:15.287Z,102438.88
2022-11-26T05:33:42.112Z,102448.66
2022-11-26T05:36:09.162Z,102445.31
2022-11-26T05:38:36.697Z,102447.47
2022-11-26T05:41:03.410Z,102452.75
2022-11-26T05:43:30.388Z,102454.91
2022-11-26T05:45:57.548Z,102458.31
2022-11-26T05:48:24.497Z,102459.78
2022-11-26T05:50:57.984Z,102454.47
2022-11-26T05:53:25.168Z,102454.97
2022-11-26T05:55:52.060Z,102453.09
2022-11-26T05:58:18.937Z,102452.03
2022-11-26T06:00:46.094Z,102463.66
2022-11-26T06:03:17.052Z,102452.31
2022-11-26T06:05:46.752Z,102455.41
2022-11-26T06:08:13.483Z,102455.28
2022-11-26T06:10:42.436Z,102456.44
2022-11-26T06:13:09.206Z,102457.31
2022-11-26T06:15:36.092Z,102463.72
2022-11-26T06:18:03.725Z,102467.94
2022-11-26T06:20:30.539Z,102457.22
2022-11-26T06:22:57.267Z,102460.25
2022-11-26T06:25:23.991Z,102465.47
2022-11-26T06:27:52.324Z,102457.22
2022-11-26T06:30:19.439Z,102462.50
2022-11-26T06:32:49.007Z,102461.09
2022-11-26T06:35:15.959Z,102459.06
2022-11-26T06:37:42.717Z,102469.22
2022-11-26T06:40:11.471Z,102476.75
2022-11-26T06:42:38.661Z,102480.38
2022-11-26T06:45:05.673Z,102486.00
2022-11-26T06:47:32.447Z,102487.53
2022-11-26T06:49:59.279Z,102498.25
2022-11-26T06:52:26.051Z,102496.59
2022-11-26T06:54:53.445Z,102489.84
2022-11-26T06:57:20.226Z,102506.19
2022-11-26T06:59:47.690Z,102509.19
2022-11-26T07:02:14.563Z,102504.03
2022-11-26T07:04:41.610Z,102510.81
2022-11-26T07:07:08.605Z,102521.63
2022-11-26T07:09:35.582Z,102523.47
2022-11-26T07:12:02.527Z,102520.34
2022-11-26T07:14:29.273Z,102522.91
2022-11-26T07:16:56.346Z,102530.81
2022-11-26T07:19:23.320Z,102535.97
2022-11-26T07:21:50.181Z,102525.16
2022-11-26T07:24:16.978Z,102510.16
2022-11-26T07:26:43.986Z,102512.59
2022-11-26T07:29:10.861Z,102515.22
2022-11-26T07:31:37.834Z,102510.59
2022-11-26T07:34:04.583Z,102517.34
2022-11-26T07:36:31.467Z,102530.19
2022-11-26T07:39:00.104Z,102529.44
2022-11-26T07:41:27.335Z,102527.34
2022-11-26T07:43:54.609Z,102529.16
2022-11-26T07:46:24.572Z,102531.78
2022-11-26T07:48:51.526Z,102527.94
2022-11-26T07:51:22.603Z,102533.97
2022-11-26T07:53:50.488Z,102538.31
2022-11-26T07:56:18.109Z,102536.66
2022-11-26T07:58:45.416Z,102534.56
2022-11-26T08:01:14.771Z,102547.16
2022-11-26T08:03:42.909Z,102544.50
2022-11-26T08:06:12.138Z,102543.38
2022-11-26T08:08:39.234Z,102545.53
2022-11-26T08:11:22.433Z,102543.31
2022-11-26T08:13:53.402Z,102539.06
2022-11-26T08:16:20.251Z,102546.50
2022-11-26T08:18:48.003Z,102540.44
2022-11-26T08:21:14.768Z,102544.78
2022-11-26T08:23:41.621Z,102542.25
2022-11-26T08:28:59.247Z,102546.84
2022-11-26T08:31:27.871Z,102545.75
2022-11-26T08:33:59.117Z,102551.47
2022-11-26T08:36:27.117Z,102540.66
2022-11-26T08:38:53.893Z,102536.56
2022-11-26T08:41:20.800Z,102549.44
2022-11-26T08:46:37.748Z,102561.13
2022-11-26T08:49:05.316Z,102552.47
2022-11-26T08:51:32.171Z,102547.88
2022-11-26T08:53:58.876Z,102532.75
2022-11-26T08:56:25.743Z,102542.84
2022-11-26T08:58:53.195Z,102546.31
2022-11-26T09:01:22.351Z,102546.44
2022-11-26T09:03:50.477Z,102552.81
2022-11-26T09:06:18.395Z,102550.91
2022-11-26T09:09:05.360Z,102552.41
2022-11-26T09:11:34.701Z,102554.03
2022-11-26T09:14:01.627Z,102552.94
2022-11-26T09:16:28.948Z,102558.03
2022-11-26T09:18:56.132Z,102559.22
2022-11-26T09:21:23.313Z,102560.53
2022-11-26T09:23:50.135Z,102569.25
2022-11-26T09:26:18.285Z,102573.34
2022-11-26T09:28:44.926Z,102564.63
2022-11-26T09:31:11.777Z,102558.16
2022-11-26T09:33:38.480Z,102557.06
2022-11-26T09:36:07.125Z,102554.38
2022-11-26T09:38:34.663Z,102542.88
2022-11-26T09:41:17.620Z,102549.09
2022-11-26T09:44:09.338Z,102559.28
2022-11-26T09:47:10.579Z,102558.41
2022-11-26T09:50:03.724Z,102562.53
2022-11-26T09:52:34.698Z,102554.66
2022-11-26T09:55:12.480Z,102559.22
2022-11-26T09:58:04.304Z,102569.56
2022-11-26T10:00:39.328Z,102574.75
2022-11-26T10:03:21.298Z,102579.03
2022-11-26T10:05:49.612Z,102568.00
2022-11-26T10:08:28.560Z,102568.75
2022-11-26T10:11:13.226Z,102567.19
2022-11-26T10:14:07.857Z,102569.63
2022-11-26T10:16:43.828Z,102566.13
2022-11-26T10:19:26.310Z,102556.06
2022-11-26T10:21:58.973Z,102558.78
2022-11-26T10:24:42.142Z,102563.91
2022-11-26T10:27:18.316Z,102560.69
2022-11-26T10:29:50.071Z,102553.66
2022-11-26T10:32:28.283Z,102560.16
2022-11-26T10:34:57.560Z,102540.34
2022-11-26T10:37:26.517Z,102538.97
2022-11-26T10:40:02.003Z,102550.66
2022-11-26T10:42:43.262Z,102537.09
2022-11-26T10:45:24.120Z,102537.38
2022-11-26T10:47:50.879Z,102543.88
2022-11-26T10:53:21.145Z,102546.53
2022-11-26T10:55:48.144Z,102548.47
2022-11-26T10:58:17.494Z,102544.13
2022-11-26T11:00:50.456Z,102539.25
2022-11-26T11:03:44.594Z,102538.47
2022-11-26T11:06:20.616Z,102531.34
2022-11-26T11:08:49.925Z,102518.34
2022-11-26T11:11:22.510Z,102522.88
2022-11-26T11:13:49.590Z,102519.91
2022-11-26T11:16:26.880Z,102520.50
2022-11-26T11:18:58.658Z,102530.78
2022-11-26T11:21:31.660Z,102528.59
2022-11-26T11:24:21.815Z,102532.03
2022-11-26T11:26:53.478Z,102530.22
2022-11-26T11:29:29.374Z,102513.31
2022-11-26T11:31:57.476Z,102519.91
2022-11-26T11:34:43.111Z,102515.03
2022-11-26T11:37:21.881Z,102522.22
2022-11-26T11:40:03.767Z,102524.44
2022-11-26T11:42:32.295Z,102520.75
2022-11-26T11:45:00.332Z,102520.34
2022-11-26T11:47:38.171Z,102521.75
2022-11-26T11:50:29.435Z,102521.53
2022-11-26T11:53:28.075Z,102520.84
2022-11-26T11:56:02.886Z,102533.41
2022-11-26T11:58:38.832Z,102519.09
2022-11-26T12:01:43.177Z,102515.03
2022-11-26T12:04:31.510Z,102521.84
2022-11-26T12:07:07.590Z,102530.41
2022-11-26T12:09:37.314Z,102522.22
2022-11-26T12:12:15.739Z,102522.56
2022-11-26T12:14:47.431Z,102529.03
2022-11-26T12:17:59.105Z,102543.19
2022-11-26T12:20:32.258Z,102537.94
2022-11-26T12:23:13.077Z,102541.94
2022-11-26T12:25:55.388Z,102533.34
2022-11-26T12:32:48.516Z,102533.47
2022-11-26T12:35:31.764Z,102533.00
2022-11-26T12:38:10.383Z,102532.38
2022-11-26T12:40:45.363Z,102531.53
2022-11-26T12:43:48.496Z,102526.56
2022-11-26T12:46:33.406Z,102533.66
2022-11-26T12:53:33.447Z,102525.84
2022-11-26T12:56:32.702Z,102520.53
2022-11-26T12:59:24.670Z,102518.94
2022-11-26T13:01:51.516Z,102520.72
2022-11-26T13:04:37.172Z,102520.75
2022-11-26T13:07:10.300Z,102517.50
2022-11-26T13:09:37.534Z,102514.59
2022-11-26T13:12:26.270Z,102512.06
2022-11-26T13:15:00.132Z,102499.31
2022-11-26T13:17:42.201Z,102503.63
2022-11-26T13:20:38.387Z,102499.31
2022-11-26T13:23:11.128Z,102496.34
2022-11-26T13:25:49.253Z,102496.81
2022-11-26T13:28:33.139Z,102487.94
2022-11-26T13:31:21.337Z,102489.03
2022-11-26T13:34:03.286Z,102477.69
2022-11-26T13:36:36.148Z,102479.16
2022-11-26T13:39:24.343Z,102490.03
2022-11-26T13:41:56.936Z,102489.66
2022-11-26T13:44:49.463Z,102480.78
2022-11-26T13:47:24.760Z,102462.81
2022-11-26T13:50:06.096Z,102465.47
2022-11-26T13:52:42.732Z,102460.72
2022-11-26T13:55:17.484Z,102451.59
2022-11-26T13:57:47.744Z,102449.75
2022-11-26T14:00:32.066Z,102452.56
2022-11-26T14:02:59.888Z,102442.69
2022-11-26T14:05:51.889Z,102436.69
2022-11-26T14:08:41.866Z,102429.28
2022-11-26T14:11:09.649Z,102426.19
2022-11-26T14:13:36.661Z,102433.53
2022-11-26T14:16:12.747Z,102436.97
2022-11-26T14:18:49.624Z,102435.22
2022-11-26T14:21:17.554Z,102446.63
2022-11-26T14:23:47.639Z,102446.88
2022-11-26T14:26:29.523Z,102448.31
2022-11-26T14:29:08.882Z,102443.31
2022-11-26T14:31:38.252Z,102431.16
2022-11-26T14:34:19.286Z,102441.59
2022-11-26T14:37:03.259Z,102443.16
2022-11-26T14:39:31.986Z,102444.47
2022-11-26T14:42:05.751Z,102447.44
2022-11-26T14:44:34.293Z,102445.41
2022-11-26T14:47:09.520Z,102443.22
2022-11-26T14:49:42.319Z,102443.00
2022-11-26T14:52:25.202Z,102442.88
2022-11-26T14:55:22.585Z,102441.69
2022-11-26T14:57:50.538Z,102450.38
2022-11-26T15:04:11.622Z,102452.41
2022-11-26T15:06:45.311Z,102444.91
2022-11-26T15:09:48.089Z,102445.81
2022-11-26T15:12:49.534Z,102452.06
2022-11-26T15:15:25.907Z,102464.97
2022-11-26T15:17:59.539Z,102458.03
2022-11-26T15:23:46.561Z,102452.53
2022-11-26T15:26:21.147Z,102447.91
2022-11-26T15:28:57.051Z,102441.59
2022-11-26T15:31:52.926Z,102450.19
2022-11-26T15:34:23.951Z,102452.03
2022-11-26T15:36:51.042Z,102453.81
2022-11-26T15:39:27.001Z,102450.34
2022-11-26T15:41:57.235Z,102457.06
2022-11-26T15:44:39.010Z,102445.78
2022-11-26T15:47:17.585Z,102456.44
2022-11-26T15:50:03.371Z,102446.22
2022-11-26T15:52:32.891Z,102441.66
2022-11-26T15:55:12.603Z,102442.81
2022-11-26T15:57:41.270Z,102441.38
2022-11-26T16:00:28.661Z,102450.03
2022-11-26T16:02:55.492Z,102440.63
2022-11-26T16:05:29.367Z,102442.97
2022-11-26T16:07:58.179Z,102445.78
2022-11-26T16:10:31.671Z,102459.81
2022-11-26T16:13:18.604Z,102450.59
2022-11-26T16:15:54.850Z,102459.94
2022-11-26T16:18:25.449Z,102458.28
2022-11-26T16:21:07.594Z,102458.41
2022-11-26T16:23:34.568Z,102450.19
2022-11-26T16:26:28.179Z,102449.00
2022-11-26T16:28:55.459Z,102451.72
2022-11-26T16:31:22.455Z,102445.72
2022-11-26T16:33:49.441Z,102449.50
2022-11-26T16:36:28.488Z,102430.59
2022-11-26T16:38:55.456Z,102426.53
2022-11-26T16:41:22.779Z,102433.31
2022-11-26T16:43:50.171Z,102431.41
2022-11-26T16:46:19.735Z,102437.06
2022-11-26T16:48:47.439Z,102431.38
2022-11-26T16:51:14.536Z,102422.50
2022-11-26T16:53:41.670Z,102430.84
2022-11-26T16:58:44.925Z,102429.78
2022-11-26T17:01:11.859Z,102424.41
2022-11-26T17:03:38.773Z,102431.44
2022-11-26T17:06:24.040Z,102424.16
2022-11-26T17:08:51.816Z,102423.31
2022-11-26T17:11:18.662Z,102423.06
2022-11-26T17:13:45.577Z,102423.31
2022-11-26T17:16:20.466Z,102426.28
2022-11-26T17:18:47.890Z,102408.97
2022-11-26T17:21:15.302Z,102423.03
2022-11-26T17:23:42.139Z,102415.75
2022-11-26T17:26:21.072Z,102417.09
2022-11-26T17:28:49.005Z,102414.69
2022-11-26T17:31:16.335Z,102415.72
2022-11-26T17:33:43.499Z,102417.09
2022-11-26T17:36:21.410Z,102419.53
2022-11-26T17:38:49.118Z,102414.94
2022-11-26T17:41:16.327Z,102410.06
2022-11-26T17:43:43.377Z,102396.53
2022-11-26T17:46:15.766Z,102400.59
2022-11-26T17:48:43.355Z,102400.31
2022-11-26T17:51:12.847Z,102393.81
2022-11-26T17:53:39.943Z,102388.41
2022-11-26T17:56:06.906Z,102392.44
2022-11-26T17:58:33.762Z,102384.63
2022-11-26T18:01:00.762Z,102383.25
2022-11-26T18:03:27.715Z,102372.19
2022-11-26T18:05:54.590Z,102370.81
2022-11-26T18:08:21.535Z,102364.06
2022-11-26T18:10:48.285Z,102377.84
2022-11-26T18:13:15.127Z,102369.19
2022-11-26T18:15:42.753Z,102365.88
2022-11-26T18:18:09.606Z,102355.13
2022-11-26T18:20:36.743Z,102358.91
2022-11-26T18:23:03.630Z,102359.41
2022-11-26T18:25:33.101Z,102348.03
2022-11-26T18:28:00.052Z,102355.09
2022-11-26T18:30:26.832Z,102356.44
2022-11-26T18:32:53.685Z,102350.22
2022-11-26T18:35:20.537Z,102343.69
2022-11-26T18:37:48.679Z,102344.31
2022-11-26T18:40:17.138Z,102358.09
2022-11-26T18:42:44.288Z,102342.88
2022-11-26T18:45:13.815Z,102334.53
2022-11-26T18:47:40.760Z,102341.28
2022-11-26T18:50:08.272Z,102343.69
2022-11-26T18:52:35.251Z,102338.31
2022-11-26T18:55:04.898Z,102338.03
2022-11-26T18:57:31.758Z,102337.25
2022-11-26T18:59:58.726Z,102339.91
2022-11-26T19:02:25.802Z,102333.19
2022-11-26T19:04:59.024Z,102320.19
2022-11-26T19:07:26.046Z,102332.34
2022-11-26T19:09:52.881Z,102324.25
2022-11-26T19:12:22.376Z,102336.72
2022-11-26T19:14:49.149Z,102331.28
2022-11-26T19:17:16.255Z,102320.19
2022-11-26T19:19:43.066Z,102331.78
2022-11-26T19:22:09.942Z,102336.94
2022-11-26T19:24:36.968Z,102341.03
2022-11-26T19:27:04.592Z,102334.78
2022-11-26T19:29:31.606Z,102338.63
2022-11-26T19:31:58.392Z,102324.47
2022-11-26T19:34:25.137Z,102332.31
2022-11-26T19:36:56.856Z,102349.06
2022-11-26T19:39:25.887Z,102341.84
2022-11-26T19:41:56.080Z,102338.84
2022-11-26T19:44:22.921Z,102336.16
2022-11-26T19:46:52.962Z,102336.66
2022-11-26T19:49:22.772Z,102347.53
2022-11-26T19:51:49.599Z,102339.69
2022-11-26T19:54:16.634Z,102332.09
2022-11-26T19:56:43.545Z,102346.47
2022-11-26T19:59:10.553Z,102340.78
2022-11-26T20:01:37.861Z,102322.91
2022-11-26T20:04:08.049Z,102329.69
2022-11-26T20:06:40.145Z,102328.59
2022-11-26T20:09:08.504Z,102333.97
2022-11-26T20:11:40.089Z,102345.38
2022-11-26T20:14:11.653Z,102355.94
2022-11-26T20:16:40.442Z,102367.53
2022-11-26T20:19:08.976Z,102367.03
2022-11-26T20:21:36.506Z,102368.38
2022-11-26T20:24:09.503Z,102369.72
2022-11-26T20:26:38.878Z,102372.69
2022-11-26T20:29:12.046Z,102375.44
2022-11-26T20:31:44.707Z,102373.22
2022-11-26T20:34:17.322Z,102378.13
2022-11-26T20:36:44.794Z,102390.03
2022-11-26T20:39:18.173Z,102383.81
2022-11-26T20:41:45.569Z,102375.13
2022-11-26T20:44:13.767Z,102378.13
2022-11-26T20:46:41.643Z,102378.66
2022-11-26T20:49:11.039Z,102370.53
2022-11-26T20:51:38.414Z,102364.78
2022-11-26T20:54:05.238Z,102356.16
2022-11-26T20:56:32.285Z,102350.22
2022-11-26T20:58:59.434Z,102349.94
2022-11-26T21:01:28.422Z,102347.53
2022-11-26T21:03:56.701Z,102350.78
2022-11-26T21:06:29.656Z,102350.50
2022-11-26T21:09:05.966Z,102348.38
2022-11-26T21:11:33.101Z,102340.50
2022-11-26T21:14:01.938Z,102337.22
2022-11-26T21:16:36.636Z,102320.19
2022-11-26T21:19:03.790Z,102312.09
2022-11-26T21:21:31.979Z,102310.47
2022-11-26T21:23:59.280Z,102300.19
2022-11-26T21:26:26.770Z,102280.72
2022-11-26T21:28:55.510Z,102279.09
2022-11-26T21:31:23.333Z,102272.88
2022-11-26T21:34:01.182Z,102262.03
2022-11-26T21:36:29.378Z,102270.41
2022-11-26T21:38:56.514Z,102276.09
2022-11-26T21:41:23.817Z,102282.34
2022-11-26T21:43:51.195Z,102265.31
2022-11-26T21:46:24.535Z,102267.44
2022-11-26T21:48:55.486Z,102257.16
2022-11-26T21:51:23.803Z,102248.22
2022-11-26T21:53:51.096Z,102238.50
2022-11-26T21:56:28.883Z,102239.63
2022-11-26T21:58:57.408Z,102230.69
2022-11-26T22:01:35.485Z,102229.88
2022-11-26T22:04:08.512Z,102230.97
2022-11-26T22:06:35.682Z,102226.34
2022-11-26T22:09:03.239Z,102225.00
2022-11-26T22:11:33.203Z,102220.94
2022-11-26T22:14:00.049Z,102203.34
2022-11-26T22:16:28.816Z,102205.28
2022-11-26T22:18:57.436Z,102192.28
2022-11-26T22:21:25.922Z,102200.94
2022-11-26T22:23:52.996Z,102192.56
2022-11-26T22:26:20.618Z,102197.16
2022-11-26T22:28:49.713Z,102198.22
2022-11-26T22:31:22.414Z,102192.03
2022-11-26T22:33:50.088Z,102195.00
2022-11-26T22:36:16.902Z,102184.38
2022-11-26T22:38:43.643Z,102182.53
2022-11-26T22:41:12.649Z,102185.00
2022-11-26T22:43:39.942Z,102191.50
2022-11-26T22:46:08.082Z,102194.47
2022-11-26T22:48:35.389Z,102193.63
2022-11-26T22:51:03.035Z,102177.66
2022-11-26T22:53:30.294Z,102170.41
2022-11-26T22:55:59.771Z,102172.28
2022-11-26T22:58:27.804Z,102181.75
2022-11-26T23:00:57.209Z,102176.63
2022-11-26T23:03:25.230Z,102173.09
2022-11-26T23:05:52.668Z,102178.22
2022-11-26T23:08:20.129Z,102175.25
2022-11-26T23:10:48.522Z,102169.03
2022-11-26T23:13:15.959Z,102157.69
2022-11-26T23:15:45.010Z,102156.34
2022-11-26T23:18:14.246Z,102147.97
2022-11-26T23:20:41.521Z,102143.63
2022-11-26T23:23:09.054Z,102139.31
2022-11-26T23:25:40.756Z,102150.41
2022-11-26T23:28:08.613Z,102142.56
2022-11-26T23:30:35.842Z,102142.28
2022-11-26T23:33:02.707Z,102144.97
2022-11-26T23:35:30.831Z,102145.78
2022-11-26T23:37:59.027Z,102142.53
2022-11-26T23:40:26.479Z,102141.75
2022-11-26T23:42:53.599Z,102143.09
2022-11-26T23:45:20.703Z,102140.66
2022-11-26T23:47:47.808Z,102156.06
2022-11-26T23:50:14.572Z,102149.53
2022-11-26T23:52:41.834Z,102146.28
2022-11-26T23:55:08.983Z,102147.72
2022-11-26T23:57:35.882Z,102146.34
